sensor_id;sensor_type;location;lat;lon;timestamp;pressure;altitude;pressure_sealevel;temperature;humidity
75794;BME280;64418;47.536;19.074;2022-10-22T00:00:54;100389.13;;;11.17;60.42
75794;BME280;64418;47.536;19.074;2022-10-22T00:03:39;100401.00;;;11.16;60.67
75794;BME280;64418;47.536;19.074;2022-10-22T00:06:24;100396.44;;;11.16;60.73
75794;BME280;64418;47.536;19.074;2022-10-22T00:09:09;100382.87;;;11.16;60.91
75794;BME280;64418;47.536;19.074;2022-10-22T00:11:54;100399.56;;;11.13;61.16
75794;BME280;64418;47.536;19.074;2022-10-22T00:14:39;100396.03;;;11.12;61.37
75794;BME280;64418;47.536;19.074;2022-10-22T00:17:23;100403.31;;;11.12;61.33
75794;BME280;64418;47.536;19.074;2022-10-22T00:20:08;100406.03;;;11.12;61.37
75794;BME280;64418;47.536;19.074;2022-10-22T00:22:54;100404.34;;;11.11;61.29
75794;BME280;64418;47.536;19.074;2022-10-22T00:25:38;100394.56;;;11.10;61.30
75794;BME280;64418;47.536;19.074;2022-10-22T00:28:23;100396.22;;;11.11;61.28
75794;BME280;64418;47.536;19.074;2022-10-22T00:31:08;100397.28;;;11.10;61.21
75794;BME280;64418;47.536;19.074;2022-10-22T00:33:52;100395.59;;;11.09;61.20
75794;BME280;64418;47.536;19.074;2022-10-22T00:36:36;100391.88;;;11.10;61.23
75794;BME280;64418;47.536;19.074;2022-10-22T00:39:24;100379.53;;;11.07;61.27
75794;BME280;64418;47.536;19.074;2022-10-22T00:42:11;100384.75;;;11.09;61.28
75794;BME280;64418;47.536;19.074;2022-10-22T00:45:04;100368.50;;;11.09;61.54
75794;BME280;64418;47.536;19.074;2022-10-22T00:47:52;100358.69;;;11.08;61.70
75794;BME280;64418;47.536;19.074;2022-10-22T00:50:40;100368.50;;;11.09;62.01
75794;BME280;64418;47.536;19.074;2022-10-22T00:53:28;100364.34;;;11.06;62.05
75794;BME280;64418;47.536;19.074;2022-10-22T00:56:14;100365.16;;;11.07;62.31
75794;BME280;64418;47.536;19.074;2022-10-22T00:58:59;100363.50;;;11.06;62.33
75794;BME280;64418;47.536;19.074;2022-10-22T01:01:45;100367.84;;;11.07;62.39
75794;BME280;64418;47.536;19.074;2022-10-22T01:04:29;100362.66;;;11.05;62.45
75794;BME280;64418;47.536;19.074;2022-10-22T01:07:16;100375.38;;;11.05;62.43
75794;BME280;64418;47.536;19.074;2022-10-22T01:10:04;100373.09;;;11.02;62.59
75794;BME280;64418;47.536;19.074;2022-10-22T01:13:00;100370.56;;;11.00;62.78
75794;BME280;64418;47.536;19.074;2022-10-22T01:15:58;100381.41;;;11.00;62.94
75794;BME280;64418;47.536;19.074;2022-10-22T01:18:47;100381.41;;;11.00;63.30
75794;BME280;64418;47.536;19.074;2022-10-22T01:21:41;100371.84;;;10.98;63.35
75794;BME280;64418;47.536;19.074;2022-10-22T01:24:33;100371.84;;;10.98;63.55
75794;BME280;64418;47.536;19.074;2022-10-22T01:27:25;100363.91;;;10.96;63.65
75794;BME280;64418;47.536;19.074;2022-10-22T01:30:14;100358.47;;;10.96;63.82
75794;BME280;64418;47.536;19.074;2022-10-22T01:33:02;100366.00;;;10.94;64.00
75794;BME280;64418;47.536;19.074;2022-10-22T01:35:49;100364.34;;;10.93;64.14
75794;BME280;64418;47.536;19.074;2022-10-22T01:38:34;100381.84;;;10.91;64.28
75794;BME280;64418;47.536;19.074;2022-10-22T01:41:19;100381.22;;;10.89;64.21
75794;BME280;64418;47.536;19.074;2022-10-22T01:44:03;100375.78;;;10.89;64.27
75794;BME280;64418;47.536;19.074;2022-10-22T01:46:50;100368.69;;;10.88;64.36
75794;BME280;64418;47.536;19.074;2022-10-22T01:49:55;100351.81;;;10.86;64.53
75794;BME280;64418;47.536;19.074;2022-10-22T01:52:52;100352.25;;;10.83;64.66
75794;BME280;64418;47.536;19.074;2022-10-22T01:55:49;100341.41;;;10.83;64.70
75794;BME280;64418;47.536;19.074;2022-10-22T01:58:40;100335.16;;;10.82;64.71
75794;BME280;64418;47.536;19.074;2022-10-22T02:01:34;100330.56;;;10.83;64.84
75794;BME280;64418;47.536;19.074;2022-10-22T02:04:26;100332.44;;;10.82;65.02
75794;BME280;64418;47.536;19.074;2022-10-22T02:07:14;100336.41;;;10.80;65.04
75794;BME280;64418;47.536;19.074;2022-10-22T02:10:00;100337.22;;;10.80;65.04
75794;BME280;64418;47.536;19.074;2022-10-22T02:12:49;100335.56;;;10.79;65.14
75794;BME280;64418;47.536;19.074;2022-10-22T02:15:36;100335.75;;;10.78;65.10
75794;BME280;64418;47.536;19.074;2022-10-22T02:18:26;100336.81;;;10.77;64.88
75794;BME280;64418;47.536;19.074;2022-10-22T02:21:13;100343.91;;;10.78;64.87
75794;BME280;64418;47.536;19.074;2022-10-22T02:23:58;100334.94;;;10.77;64.72
75794;BME280;64418;47.536;19.074;2022-10-22T02:26:46;100347.22;;;10.73;64.73
75794;BME280;64418;47.536;19.074;2022-10-22T02:29:38;100358.91;;;10.67;64.91
75794;BME280;64418;47.536;19.074;2022-10-22T02:32:27;100358.72;;;10.69;64.72
75794;BME280;64418;47.536;19.074;2022-10-22T02:35:17;100357.22;;;10.66;64.77
75794;BME280;64418;47.536;19.074;2022-10-22T02:38:04;100356.19;;;10.67;64.73
75794;BME280;64418;47.536;19.074;2022-10-22T02:40:49;100348.25;;;10.66;64.80
75794;BME280;64418;47.536;19.074;2022-10-22T02:43:39;100349.31;;;10.65;64.91
75794;BME280;64418;47.536;19.074;2022-10-22T02:46:23;100349.72;;;10.61;65.02
75794;BME280;64418;47.536;19.074;2022-10-22T02:49:08;100354.72;;;10.58;65.02
75794;BME280;64418;47.536;19.074;2022-10-22T02:51:52;100356.81;;;10.56;65.00
75794;BME280;64418;47.536;19.074;2022-10-22T02:54:38;100362.66;;;10.53;65.07
75794;BME280;64418;47.536;19.074;2022-10-22T02:57:22;100361.59;;;10.47;65.15
75794;BME280;64418;47.536;19.074;2022-10-22T03:00:08;100353.88;;;10.44;65.26
75794;BME280;64418;47.536;19.074;2022-10-22T03:02:53;100350.94;;;10.39;65.33
75794;BME280;64418;47.536;19.074;2022-10-22T03:05:37;100356.78;;;10.36;65.42
75794;BME280;64418;47.536;19.074;2022-10-22T03:08:21;100373.44;;;10.33;65.51
75794;BME280;64418;47.536;19.074;2022-10-22T03:11:07;100367.78;;;10.28;65.63
75794;BME280;64418;47.536;19.074;2022-10-22T03:13:52;100365.31;;;10.27;65.68
75794;BME280;64418;47.536;19.074;2022-10-22T03:16:37;100370.91;;;10.25;65.77
75794;BME280;64418;47.536;19.074;2022-10-22T03:19:21;100371.34;;;10.22;65.88
75794;BME280;64418;47.536;19.074;2022-10-22T03:22:08;100366.34;;;10.19;65.86
75794;BME280;64418;47.536;19.074;2022-10-22T03:24:56;100359.66;;;10.15;65.91
75794;BME280;64418;47.536;19.074;2022-10-22T03:27:44;100361.69;;;10.13;66.06
75794;BME280;64418;47.536;19.074;2022-10-22T03:30:29;100357.53;;;10.10;66.12
75794;BME280;64418;47.536;19.074;2022-10-22T03:33:13;100352.53;;;10.07;66.03
75794;BME280;64418;47.536;19.074;2022-10-22T03:35:58;100355.66;;;10.04;66.17
75794;BME280;64418;47.536;19.074;2022-10-22T03:38:43;100343.75;;;9.99;66.34
75794;BME280;64418;47.536;19.074;2022-10-22T03:41:27;100331.25;;;9.98;66.29
75794;BME280;64418;47.536;19.074;2022-10-22T03:44:14;100323.34;;;9.96;66.44
75794;BME280;64418;47.536;19.074;2022-10-22T03:47:00;100324.56;;;9.94;66.56
75794;BME280;64418;47.536;19.074;2022-10-22T03:49:44;100306.03;;;9.91;66.51
75794;BME280;64418;47.536;19.074;2022-10-22T03:52:34;100291.25;;;9.87;66.52
75794;BME280;64418;47.536;19.074;2022-10-22T03:55:19;100298.34;;;9.88;66.65
75794;BME280;64418;47.536;19.074;2022-10-22T03:58:03;100304.56;;;9.82;66.85
75794;BME280;64418;47.536;19.074;2022-10-22T04:00:49;100317.44;;;9.80;66.89
75794;BME280;64418;47.536;19.074;2022-10-22T04:03:33;100324.94;;;9.78;66.84
75794;BME280;64418;47.536;19.074;2022-10-22T04:06:18;100330.56;;;9.76;66.93
75794;BME280;64418;47.536;19.074;2022-10-22T04:09:03;100332.41;;;9.76;67.05
75794;BME280;64418;47.536;19.074;2022-10-22T04:11:47;100348.66;;;9.76;67.38
75794;BME280;64418;47.536;19.074;2022-10-22T04:14:31;100352.37;;;9.75;68.05
75794;BME280;64418;47.536;19.074;2022-10-22T04:17:17;100349.50;;;9.76;68.25
75794;BME280;64418;47.536;19.074;2022-10-22T04:20:03;100329.53;;;9.77;68.71
75794;BME280;64418;47.536;19.074;2022-10-22T04:22:47;100329.53;;;9.77;68.93
75794;BME280;64418;47.536;19.074;2022-10-22T04:25:32;100334.09;;;9.77;69.37
75794;BME280;64418;47.536;19.074;2022-10-22T04:28:17;100341.78;;;9.73;70.45
75794;BME280;64418;47.536;19.074;2022-10-22T04:31:07;100346.13;;;9.67;70.24
75794;BME280;64418;47.536;19.074;2022-10-22T04:33:54;100336.34;;;9.66;70.50
75794;BME280;64418;47.536;19.074;2022-10-22T04:36:38;100336.34;;;9.66;70.50
75794;BME280;64418;47.536;19.074;2022-10-22T04:39:23;100339.44;;;9.63;70.60
75794;BME280;64418;47.536;19.074;2022-10-22T04:42:07;100337.78;;;9.62;70.55
75794;BME280;64418;47.536;19.074;2022-10-22T04:44:51;100331.09;;;9.58;70.59
75794;BME280;64418;47.536;19.074;2022-10-22T04:47:36;100332.75;;;9.59;70.79
75794;BME280;64418;47.536;19.074;2022-10-22T04:50:21;100334.84;;;9.57;70.70
75794;BME280;64418;47.536;19.074;2022-10-22T04:53:05;100329.44;;;9.57;70.79
75794;BME280;64418;47.536;19.074;2022-10-22T04:55:50;100320.69;;;9.55;71.05
75794;BME280;64418;47.536;19.074;2022-10-22T04:58:34;100319.44;;;9.51;71.01
75794;BME280;64418;47.536;19.074;2022-10-22T05:01:20;100338.13;;;9.46;71.73
75794;BME280;64418;47.536;19.074;2022-10-22T05:04:06;100333.13;;;9.43;71.74
75794;BME280;64418;47.536;19.074;2022-10-22T05:06:52;100329.75;;;9.41;72.20
75794;BME280;64418;47.536;19.074;2022-10-22T05:09:37;100326.44;;;9.39;72.33
75794;BME280;64418;47.536;19.074;2022-10-22T05:12:21;100329.97;;;9.40;72.46
75794;BME280;64418;47.536;19.074;2022-10-22T05:15:06;100315.63;;;9.39;72.54
75794;BME280;64418;47.536;19.074;2022-10-22T05:17:51;100323.31;;;9.42;73.06
75794;BME280;64418;47.536;19.074;2022-10-22T05:20:38;100326.66;;;9.44;73.61
75794;BME280;64418;47.536;19.074;2022-10-22T05:23:24;100328.56;;;9.50;73.16
75794;BME280;64418;47.536;19.074;2022-10-22T05:26:11;100323.41;;;9.55;73.08
75794;BME280;64418;47.536;19.074;2022-10-22T05:28:55;100333.81;;;9.58;72.89
75794;BME280;64418;47.536;19.074;2022-10-22T05:31:39;100327.75;;;9.56;72.53
75794;BME280;64418;47.536;19.074;2022-10-22T05:34:24;100330.69;;;9.61;72.35
75794;BME280;64418;47.536;19.074;2022-10-22T05:37:08;100335.69;;;9.64;71.88
75794;BME280;64418;47.536;19.074;2022-10-22T05:39:55;100341.94;;;9.65;71.66
75794;BME280;64418;47.536;19.074;2022-10-22T05:42:39;100344.84;;;9.63;71.55
75794;BME280;64418;47.536;19.074;2022-10-22T05:45:23;100343.19;;;9.62;71.64
75794;BME280;64418;47.536;19.074;2022-10-22T05:48:08;100332.37;;;9.62;71.62
75794;BME280;64418;47.536;19.074;2022-10-22T05:50:53;100341.13;;;9.64;71.46
75794;BME280;64418;47.536;19.074;2022-10-22T05:53:39;100339.25;;;9.65;71.19
75794;BME280;64418;47.536;19.074;2022-10-22T05:56:26;100342.97;;;9.64;71.12
75794;BME280;64418;47.536;19.074;2022-10-22T05:59:11;100341.13;;;9.64;71.13
75794;BME280;64418;47.536;19.074;2022-10-22T06:01:56;100347.38;;;9.65;71.17
75794;BME280;64418;47.536;19.074;2022-10-22T06:04:41;100355.28;;;9.66;71.28
75794;BME280;64418;47.536;19.074;2022-10-22T06:07:25;100359.63;;;9.67;71.30
75794;BME280;64418;47.536;19.074;2022-10-22T06:10:13;100366.53;;;9.70;71.31
75794;BME280;64418;47.536;19.074;2022-10-22T06:13:01;100370.88;;;9.71;71.38
75794;BME280;64418;47.536;19.074;2022-10-22T06:15:46;100363.63;;;9.72;71.34
75794;BME280;64418;47.536;19.074;2022-10-22T06:18:31;100372.37;;;9.74;71.30
75794;BME280;64418;47.536;19.074;2022-10-22T06:21:16;100387.19;;;9.78;71.08
75794;BME280;64418;47.536;19.074;2022-10-22T06:24:01;100383.03;;;9.82;70.94
75794;BME280;64418;47.536;19.074;2022-10-22T06:26:48;100375.53;;;9.84;70.68
75794;BME280;64418;47.536;19.074;2022-10-22T06:29:34;100377.84;;;9.87;70.74
75794;BME280;64418;47.536;19.074;2022-10-22T06:32:18;100379.94;;;9.91;70.85
75794;BME280;64418;47.536;19.074;2022-10-22T06:35:02;100373.69;;;9.97;70.81
75794;BME280;64418;47.536;19.074;2022-10-22T06:37:46;100379.16;;;10.04;70.71
75794;BME280;64418;47.536;19.074;2022-10-22T06:40:31;100380.63;;;10.13;70.68
75794;BME280;64418;47.536;19.074;2022-10-22T06:43:16;100382.16;;;10.22;70.54
75794;BME280;64418;47.536;19.074;2022-10-22T06:46:03;100386.56;;;10.36;70.31
75794;BME280;64418;47.536;19.074;2022-10-22T06:48:49;100386.59;;;10.49;69.91
75794;BME280;64418;47.536;19.074;2022-10-22T06:51:33;100401.41;;;10.60;69.76
75794;BME280;64418;47.536;19.074;2022-10-22T06:54:18;100398.94;;;10.72;69.37
75794;BME280;64418;47.536;19.074;2022-10-22T06:57:03;100409.34;;;10.88;68.87
75794;BME280;64418;47.536;19.074;2022-10-22T06:59:47;100404.16;;;11.06;68.48
75794;BME280;64418;47.536;19.074;2022-10-22T07:02:32;100393.50;;;11.24;67.73
75794;BME280;64418;47.536;19.074;2022-10-22T07:05:17;100393.06;;;11.40;67.16
75794;BME280;64418;47.536;19.074;2022-10-22T07:08:01;100381.16;;;11.54;66.60
75794;BME280;64418;47.536;19.074;2022-10-22T07:10:46;100378.22;;;11.63;66.03
75794;BME280;64418;47.536;19.074;2022-10-22T07:13:30;100376.31;;;11.70;65.95
75794;BME280;64418;47.536;19.074;2022-10-22T07:16:16;100370.88;;;11.70;65.22
75794;BME280;64418;47.536;19.074;2022-10-22T07:19:02;100382.16;;;11.67;64.41
75794;BME280;64418;47.536;19.074;2022-10-22T07:21:47;100372.34;;;11.66;64.70
75794;BME280;64418;47.536;19.074;2022-10-22T07:24:31;100377.13;;;11.64;64.33
75794;BME280;64418;47.536;19.074;2022-10-22T07:27:15;100370.25;;;11.61;64.53
75794;BME280;64418;47.536;19.074;2022-10-22T07:29:59;100369.25;;;11.55;64.24
75794;BME280;64418;47.536;19.074;2022-10-22T07:32:44;100371.75;;;11.57;63.90
75794;BME280;64418;47.536;19.074;2022-10-22T07:35:29;100373.19;;;11.66;63.18
75794;BME280;64418;47.536;19.074;2022-10-22T07:38:13;100366.69;;;11.80;62.37
75794;BME280;64418;47.536;19.074;2022-10-22T07:40:58;100373.88;;;12.06;62.18
75794;BME280;64418;47.536;19.074;2022-10-22T07:43:43;100368.50;;;12.37;61.45
75794;BME280;64418;47.536;19.074;2022-10-22T07:46:27;100367.66;;;12.68;61.22
75794;BME280;64418;47.536;19.074;2022-10-22T07:49:13;100373.50;;;12.96;60.54
75794;BME280;64418;47.536;19.074;2022-10-22T07:51:58;100378.72;;;13.23;60.36
75794;BME280;64418;47.536;19.074;2022-10-22T07:54:43;100384.56;;;13.44;58.08
75794;BME280;64418;47.536;19.074;2022-10-22T07:57:28;100377.97;;;13.59;60.44
75794;BME280;64418;47.536;19.074;2022-10-22T08:00:13;100376.34;;;13.87;59.40
75794;BME280;64418;47.536;19.074;2022-10-22T08:02:58;100385.03;;;14.14;56.55
75794;BME280;64418;47.536;19.074;2022-10-22T08:05:43;100391.50;;;14.31;57.09
75794;BME280;64418;47.536;19.074;2022-10-22T08:08:29;100381.66;;;14.49;55.62
75794;BME280;64418;47.536;19.074;2022-10-22T08:11:14;100384.53;;;14.54;53.84
75794;BME280;64418;47.536;19.074;2022-10-22T08:13:58;100373.75;;;14.59;53.65
75794;BME280;64418;47.536;19.074;2022-10-22T08:16:43;100370.13;;;14.76;54.23
75794;BME280;64418;47.536;19.074;2022-10-22T08:19:27;100382.63;;;15.07;52.83
75794;BME280;64418;47.536;19.074;2022-10-22T08:22:12;100381.69;;;15.36;50.12
75794;BME280;64418;47.536;19.074;2022-10-22T08:24:57;100377.16;;;15.30;51.12
75794;BME280;64418;47.536;19.074;2022-10-22T08:27:42;100381.31;;;15.79;49.84
75794;BME280;64418;47.536;19.074;2022-10-22T08:30:26;100381.06;;;15.93;48.43
75794;BME280;64418;47.536;19.074;2022-10-22T08:33:11;100372.59;;;15.94;48.57
75794;BME280;64418;47.536;19.074;2022-10-22T08:35:56;100372.19;;;16.14;47.36
75794;BME280;64418;47.536;19.074;2022-10-22T08:38:40;100383.09;;;15.97;47.23
75794;BME280;64418;47.536;19.074;2022-10-22T08:41:25;100376.97;;;15.67;48.57
75794;BME280;64418;47.536;19.074;2022-10-22T08:44:22;100378.25;;;15.53;49.50
75794;BME280;64418;47.536;19.074;2022-10-22T08:47:21;100391.91;;;15.53;49.34
75794;BME280;64418;47.536;19.074;2022-10-22T08:50:13;100387.75;;;15.38;49.35
75794;BME280;64418;47.536;19.074;2022-10-22T08:53:02;100390.34;;;15.10;49.74
75794;BME280;64418;47.536;19.074;2022-10-22T08:55:52;100387.72;;;15.04;49.94
75794;BME280;64418;47.536;19.074;2022-10-22T08:58:42;100395.97;;;14.85;49.94
75794;BME280;64418;47.536;19.074;2022-10-22T09:01:33;100394.44;;;14.78;50.33
75794;BME280;64418;47.536;19.074;2022-10-22T09:04:22;100388.72;;;14.68;50.65
75794;BME280;64418;47.536;19.074;2022-10-22T09:07:08;100392.13;;;14.63;50.89
75794;BME280;64418;47.536;19.074;2022-10-22T09:09:54;100382.19;;;14.57;51.24
75794;BME280;64418;47.536;19.074;2022-10-22T09:12:43;100377.03;;;14.49;51.29
75794;BME280;64418;47.536;19.074;2022-10-22T09:15:29;100381.97;;;14.40;51.70
75794;BME280;64418;47.536;19.074;2022-10-22T09:18:28;100390.63;;;14.37;52.00
75794;BME280;64418;47.536;19.074;2022-10-22T09:21:21;100396.56;;;14.28;52.06
75794;BME280;64418;47.536;19.074;2022-10-22T09:24:11;100392.91;;;14.22;52.44
75794;BME280;64418;47.536;19.074;2022-10-22T09:26:57;100391.22;;;14.21;52.63
75794;BME280;64418;47.536;19.074;2022-10-22T09:29:43;100387.66;;;14.21;52.72
75794;BME280;64418;47.536;19.074;2022-10-22T09:32:31;100380.31;;;14.21;52.69
75794;BME280;64418;47.536;19.074;2022-10-22T09:35:21;100387.66;;;14.21;52.74
75794;BME280;64418;47.536;19.074;2022-10-22T09:38:07;100392.91;;;14.22;53.02
75794;BME280;64418;47.536;19.074;2022-10-22T09:40:54;100385.31;;;14.24;53.02
75794;BME280;64418;47.536;19.074;2022-10-22T09:43:39;100400.59;;;14.25;53.07
75794;BME280;64418;47.536;19.074;2022-10-22T09:46:26;100402.28;;;14.26;53.01
75794;BME280;64418;47.536;19.074;2022-10-22T09:49:13;100392.66;;;14.24;53.03
75794;BME280;64418;47.536;19.074;2022-10-22T09:51:59;100392.28;;;14.20;53.10
75794;BME280;64418;47.536;19.074;2022-10-22T09:54:43;100400.31;;;14.15;53.13
75794;BME280;64418;47.536;19.074;2022-10-22T09:57:30;100392.75;;;14.17;53.23
75794;BME280;64418;47.536;19.074;2022-10-22T10:00:18;100386.41;;;14.23;53.23
75794;BME280;64418;47.536;19.074;2022-10-22T10:03:02;100378.97;;;14.30;53.20
75794;BME280;64418;47.536;19.074;2022-10-22T10:05:50;100390.63;;;14.37;53.08
75794;BME280;64418;47.536;19.074;2022-10-22T10:08:35;100385.91;;;14.44;52.89
75794;BME280;64418;47.536;19.074;2022-10-22T10:11:26;100384.75;;;14.52;52.98
75794;BME280;64418;47.536;19.074;2022-10-22T10:14:16;100391.62;;;14.55;52.80
75794;BME280;64418;47.536;19.074;2022-10-22T10:17:09;100382.25;;;14.51;52.76
75794;BME280;64418;47.536;19.074;2022-10-22T10:20:07;100371.25;;;14.57;52.84
75794;BME280;64418;47.536;19.074;2022-10-22T10:23:05;100357.06;;;14.67;52.44
75794;BME280;64418;47.536;19.074;2022-10-22T10:25:58;100366.22;;;14.72;52.65
75794;BME280;64418;47.536;19.074;2022-10-22T10:28:54;100368.81;;;14.79;52.21
75794;BME280;64418;47.536;19.074;2022-10-22T10:32:06;100368.34;;;14.82;52.21
75794;BME280;64418;47.536;19.074;2022-10-22T10:35:03;100380.09;;;14.82;52.11
75794;BME280;64418;47.536;19.074;2022-10-22T10:38:07;100362.41;;;14.85;52.60
75794;BME280;64418;47.536;19.074;2022-10-22T10:41:02;100377.62;;;15.04;55.02
75794;BME280;64418;47.536;19.074;2022-10-22T10:44:02;100359.50;;;15.21;54.09
75794;BME280;64418;47.536;19.074;2022-10-22T10:46:59;100359.97;;;15.41;57.31
75794;BME280;64418;47.536;19.074;2022-10-22T10:49:53;100368.03;;;15.48;54.47
75794;BME280;64418;47.536;19.074;2022-10-22T10:52:43;100375.78;;;15.63;56.40
75794;BME280;64418;47.536;19.074;2022-10-22T10:55:35;100376.00;;;15.73;52.67
75794;BME280;64418;47.536;19.074;2022-10-22T10:58:28;100385.94;;;15.79;54.03
75794;BME280;64418;47.536;19.074;2022-10-22T11:01:19;100384.50;;;15.88;51.22
75794;BME280;64418;47.536;19.074;2022-10-22T11:04:27;100380.84;;;15.82;50.68
75794;BME280;64418;47.536;19.074;2022-10-22T11:07:23;100391.41;;;15.79;52.09
75794;BME280;64418;47.536;19.074;2022-10-22T11:10:23;100382.63;;;15.77;52.64
75794;BME280;64418;47.536;19.074;2022-10-22T11:13:15;100391.81;;;15.59;51.55
75794;BME280;64418;47.536;19.074;2022-10-22T11:16:05;100380.28;;;15.69;56.47
75794;BME280;64418;47.536;19.074;2022-10-22T11:18:57;100385.47;;;15.94;53.04
75794;BME280;64418;47.536;19.074;2022-10-22T11:21:49;100376.53;;;15.86;54.04
75794;BME280;64418;47.536;19.074;2022-10-22T11:24:40;100369.81;;;15.77;52.83
75794;BME280;64418;47.536;19.074;2022-10-22T11:27:31;100364.22;;;15.84;52.33
75794;BME280;64418;47.536;19.074;2022-10-22T11:30:21;100366.25;;;15.65;52.12
75794;BME280;64418;47.536;19.074;2022-10-22T11:33:10;100355.47;;;15.59;52.26
75794;BME280;64418;47.536;19.074;2022-10-22T11:35:57;100346.59;;;15.52;52.35
75794;BME280;64418;47.536;19.074;2022-10-22T11:38:42;100343.94;;;15.68;57.13
75794;BME280;64418;47.536;19.074;2022-10-22T11:41:28;100338.22;;;16.10;54.11
75794;BME280;64418;47.536;19.074;2022-10-22T11:44:22;100335.75;;;16.08;53.23
75794;BME280;64418;47.536;19.074;2022-10-22T11:47:17;100340.56;;;16.18;50.90
75794;BME280;64418;47.536;19.074;2022-10-22T11:50:17;100341.56;;;16.12;52.33
75794;BME280;64418;47.536;19.074;2022-10-22T11:53:04;100336.44;;;16.15;52.11
75794;BME280;64418;47.536;19.074;2022-10-22T11:55:50;100329.88;;;16.45;52.26
75794;BME280;64418;47.536;19.074;2022-10-22T11:58:40;100330.53;;;16.52;51.28
75794;BME280;64418;47.536;19.074;2022-10-22T12:01:27;100341.31;;;16.42;51.20
75794;BME280;64418;47.536;19.074;2022-10-22T12:04:43;100331.16;;;16.25;50.88
75794;BME280;64418;47.536;19.074;2022-10-22T12:07:31;100334.63;;;16.21;51.18
75794;BME280;64418;47.536;19.074;2022-10-22T12:10:18;100336.06;;;16.23;51.79
75794;BME280;64418;47.536;19.074;2022-10-22T12:13:10;100330.16;;;16.31;51.21
75794;BME280;64418;47.536;19.074;2022-10-22T12:15:57;100322.56;;;16.33;51.45
75794;BME280;64418;47.536;19.074;2022-10-22T12:18:43;100324.22;;;16.34;51.50
75794;BME280;64418;47.536;19.074;2022-10-22T12:21:31;100317.00;;;16.28;51.33
75794;BME280;64418;47.536;19.074;2022-10-22T12:24:18;100328.31;;;16.20;51.22
75794;BME280;64418;47.536;19.074;2022-10-22T12:27:15;100311.72;;;16.10;51.54
75794;BME280;64418;47.536;19.074;2022-10-22T12:30:02;100306.06;;;16.00;51.74
75794;BME280;64418;47.536;19.074;2022-10-22T12:33:01;100303.72;;;15.92;52.00
75794;BME280;64418;47.536;19.074;2022-10-22T12:35:53;100296.75;;;15.84;52.16
75794;BME280;64418;47.536;19.074;2022-10-22T12:38:39;100308.28;;;15.75;52.51
75794;BME280;64418;47.536;19.074;2022-10-22T12:41:29;100298.22;;;15.64;52.91
75794;BME280;64418;47.536;19.074;2022-10-22T12:44:16;100294.44;;;15.53;53.19
75794;BME280;64418;47.536;19.074;2022-10-22T12:47:02;100310.09;;;15.46;53.44
75794;BME280;64418;47.536;19.074;2022-10-22T12:49:48;100307.50;;;15.39;53.73
75794;BME280;64418;47.536;19.074;2022-10-22T12:52:33;100306.56;;;15.34;54.03
75794;BME280;64418;47.536;19.074;2022-10-22T12:55:21;100323.06;;;15.27;54.25
75794;BME280;64418;47.536;19.074;2022-10-22T12:58:07;100321.28;;;15.21;54.24
75794;BME280;64418;47.536;19.074;2022-10-22T13:00:54;100317.88;;;15.14;54.33
75794;BME280;64418;47.536;19.074;2022-10-22T13:03:41;100313.94;;;15.10;54.38
75794;BME280;64418;47.536;19.074;2022-10-22T13:06:27;100326.41;;;15.06;54.44
75794;BME280;64418;47.536;19.074;2022-10-22T13:09:14;100317.88;;;15.03;54.53
75794;BME280;64418;47.536;19.074;2022-10-22T13:12:04;100327.09;;;15.02;54.63
75794;BME280;64418;47.536;19.074;2022-10-22T13:14:49;100327.31;;;15.00;54.75
75794;BME280;64418;47.536;19.074;2022-10-22T13:17:38;100317.72;;;14.98;54.71
75794;BME280;64418;47.536;19.074;2022-10-22T13:20:23;100319.03;;;14.95;54.79
75794;BME280;64418;47.536;19.074;2022-10-22T13:23:18;100308.13;;;14.95;54.90
75794;BME280;64418;47.536;19.074;2022-10-22T13:26:12;100319.50;;;14.92;55.07
75794;BME280;64418;47.536;19.074;2022-10-22T13:28:59;100321.63;;;14.90;55.10
75794;BME280;64418;47.536;19.074;2022-10-22T13:31:45;100324.38;;;14.90;55.12
75794;BME280;64418;47.536;19.074;2022-10-22T13:34:30;100330.88;;;14.89;55.31
75794;BME280;64418;47.536;19.074;2022-10-22T13:37:14;100318.78;;;14.85;55.51
75794;BME280;64418;47.536;19.074;2022-10-22T13:39:59;100313.31;;;14.85;55.67
75794;BME280;64418;47.536;19.074;2022-10-22T13:42:44;100306.22;;;14.84;55.80
75794;BME280;64418;47.536;19.074;2022-10-22T13:45:30;100306.22;;;14.84;55.93
75794;BME280;64418;47.536;19.074;2022-10-22T13:48:16;100317.94;;;14.84;55.96
75794;BME280;64418;47.536;19.074;2022-10-22T13:51:03;100330.78;;;14.84;56.02
75794;BME280;64418;47.536;19.074;2022-10-22T13:53:49;100337.28;;;14.83;56.14
75794;BME280;64418;47.536;19.074;2022-10-22T13:56:34;100331.22;;;14.81;56.25
75794;BME280;64418;47.536;19.074;2022-10-22T13:59:18;100323.03;;;14.81;56.53
75794;BME280;64418;47.536;19.074;2022-10-22T14:02:08;100334.78;;;14.81;56.51
75794;BME280;64418;47.536;19.074;2022-10-22T14:04:54;100338.56;;;14.80;56.48
75794;BME280;64418;47.536;19.074;2022-10-22T14:07:38;100338.56;;;14.80;56.45
75794;BME280;64418;47.536;19.074;2022-10-22T14:10:23;100333.13;;;14.80;56.53
75794;BME280;64418;47.536;19.074;2022-10-22T14:13:09;100332.31;;;14.80;56.64
75794;BME280;64418;47.536;19.074;2022-10-22T14:15:53;100336.09;;;14.79;56.87
75794;BME280;64418;47.536;19.074;2022-10-22T14:18:40;100338.00;;;14.78;57.07
75794;BME280;64418;47.536;19.074;2022-10-22T14:21:25;100336.09;;;14.79;57.28
75794;BME280;64418;47.536;19.074;2022-10-22T14:24:11;100336.09;;;14.79;57.39
75794;BME280;64418;47.536;19.074;2022-10-22T14:26:56;100335.47;;;14.77;57.47